Sarcobatus Flat, Nevada Weather observations

Data are for observation ending at time listed.
 Day   Time    Ave.   Ave.  Ave.  Vector   Max.   Stn.    Total    Solar   Ave.  
  of    of     Air    Rel.  Wind   Wind    Wind   Baro.  Precip.   Rad.    Soil  
Year   Day     Temp.  Hum.  Speed  Dir.    Gust   Pres.                    Temp. 
2016   (PST)    F      %     mph   deg.    mph     mb.     in.     W/m2     F   
------------------------------------------------------------------------------
 125   15:50   77.8    11   17.0   173     28.2   873.3    0.00     258    999.0
 125   16:00   78.2    12   18.0   184     25.7   873.2    0.00     469    999.0
 125   16:10   78.9    12   15.1   176     22.1   873.2    0.00     381    999.0
 125   16:20   78.3    12   18.7   181     25.8   873.2    0.00     335    999.0
 125   16:30   79.0    12   19.6   184     25.8   873.2    0.00     524    999.0
 125   16:40   79.3    12   19.5   185     27.2   873.1    0.00     502    999.0
 125   16:50   79.4    12   17.8   182     24.3   873.1    0.00     406    999.0
 125   17:00   78.6    12   16.9   171     22.5   873.0    0.00     319    999.0
 125   17:10   78.2    11   19.8   163     29.9   872.8    0.00     264    999.0
 125   17:20   77.6    12   14.9   172     21.1   872.8    0.00     149    999.0
 125   17:30   76.6    13   14.8   175     20.7   872.8    0.00      93    999.0
 125   17:40   76.1    13   16.6   170     24.0   872.7    0.00      82    999.0
 125   17:50   76.0    13   17.5   171     25.2   872.7    0.00     119    999.0
 125   18:00   76.0    13   14.7   170     20.8   872.6    0.00     114    999.0
 125   18:10   75.6    13   14.3   170     19.7   872.6    0.00      63    999.0
 125   18:20   75.0    14   15.7   175     20.9   872.6    0.00      26    999.0
 125   18:30   74.1    15   12.6   172     17.5   872.6    0.00      13    999.0
 125   18:40   73.6    15   13.5   173     19.2   872.7    0.00       6    999.0
 125   18:50   72.8    16   11.6   169     15.9   872.8    0.00       2    999.0
 125   19:00   72.2    17   10.5   164     13.5   872.8    0.00       0    999.0
 125   19:10   71.2    17    9.0   157     12.3   872.8    0.00       0    999.0
 125   19:20   70.0    18    7.4   151      9.9   872.9    0.00       0    999.0
 125   19:30   68.9    19    7.0   146      8.3   873.0    0.00       0    999.0
 125   19:40   69.0    19    8.1   157     10.3   873.0    0.00       0    999.0
 125   19:50   69.8    18    8.7   164     11.5   873.1    0.00       0    999.0
 125   20:00   66.6    21    5.3   118      7.5   873.1    0.00       0    999.0
 125   20:10   64.8    23    5.2   132      6.1   873.1    0.00       0    999.0
 125   20:20   64.0    23    5.2   127      8.0   873.2    0.00       0    999.0
 125   20:30   64.7    23    7.6   166     10.7   873.5    0.00       0    999.0
 125   20:40   66.5    20    9.9   140     12.1   873.4    0.00       0    999.0
 125   20:50   66.7    20    8.8   136     11.0   873.4    0.00       0    999.0
 125   21:00   66.3    20    6.9   141     12.1   873.5    0.00       0    999.0
 125   21:10   65.6    20    5.9   154      7.6   873.6    0.00       0    999.0
 125   21:20   64.3    22    4.4   142      6.1   873.6    0.00       0    999.0
 125   21:30   62.4    23    4.7   135      5.3   873.6    0.00       0    999.0
 125   21:40   61.1    24    5.3   130      6.1   873.6    0.00       0    999.0
 125   21:50   60.7    24    5.2   126      8.1   873.6    0.00       0    999.0
 125   22:00   61.0    24    5.7   128      7.5   873.6    0.00       0    999.0
 125   22:10   60.9    24    5.6   132      7.2   873.6    0.00       0    999.0
 125   22:20   60.7    24    5.1   132      6.7   873.6    0.00       0    999.0
 125   22:30   60.8    24    3.5   127      5.3   873.7    0.00       0    999.0
 125   22:40   60.6    25    2.5   110      3.9   873.7    0.00       0    999.0
 125   22:50   62.0    24    4.8   108      7.2   873.6    0.00       0    999.0
 125   23:00   63.1    23    3.4   103      5.8   873.6    0.00       0    999.0
 125   23:10   61.9    25    1.2   199      2.5   873.5    0.00       0    999.0
 125   23:20   61.7    24    4.7   110      9.4   873.5    0.00       0    999.0
 125   23:30   64.1    22    8.2   105     10.3   873.5    0.00       0    999.0
 125   23:40   63.8    23    7.2   109     10.4   873.5    0.00       0    999.0
 125   23:50   63.1    24    6.9   108      9.4   873.5    0.00       0    999.0
 126    0:00   61.2    26    2.7   220      3.9   873.4    0.00       0    999.0
 126    0:10   60.6    26    3.1   230      6.8   873.4    0.00       0    999.0
 126    0:20   61.7    26    2.3   282      3.9   873.4    0.00       0    999.0
 126    0:30   59.4    28    2.8   336      4.7   873.3    0.00       0    999.0
 126    0:40   58.8    28    1.8    69      5.0   873.2    0.00       0    999.0
 126    0:50   60.2    27    5.3   110      9.9   873.1    0.00       0    999.0
 126    1:00   62.5    25    9.2   123     11.4   872.9    0.00       0    999.0
 126    1:10   62.9    24    9.5   117     11.8   872.8    0.00       0    999.0
 126    1:20   63.0    25   10.2   115     13.5   872.7    0.00       0    999.0
 126    1:30   63.0    26    9.6   117     12.8   872.7    0.00       0    999.0
 126    1:40   62.6    27    8.7   116     11.0   872.7    0.00       0    999.0
 126    1:50   61.8    27    7.9   112      9.5   872.6    0.00       0    999.0
 126    2:00   61.8    27    8.4   114     10.2   872.6    0.00       0    999.0
 126    2:10   61.5    27    8.2   112      9.8   872.6    0.00       0    999.0
 126    2:20   61.3    28    8.2   112      9.9   872.5    0.00       0    999.0
 126    2:30   61.1    28    8.0   108      9.8   872.5    0.00       0    999.0
 126    2:40   60.7    29    8.0   107      9.7   872.5    0.00       0    999.0
 126    2:50   60.7    29    8.2   110     10.2   872.5    0.00       0    999.0
 126    3:00   59.8    30    6.7   115      8.0   872.5    0.00       0    999.0
 126    3:10   58.9    31    6.1   110      7.1   872.5    0.00       0    999.0
 126    3:20   58.7    31    5.4   116      6.7   872.5    0.00       0    999.0
 126    3:30   58.8    31    5.7   114      7.1   872.4    0.00       0    999.0
 126    3:40   59.1    30    6.1   112      7.6   872.4    0.00       0    999.0
 126    3:50   58.9    31    6.0   120      8.6   872.4    0.00       0    999.0
 126    4:00   58.4    32    6.6   112      8.0   872.3    0.00       0    999.0
 126    4:10   58.3    33    5.9   115      6.9   872.2    0.00       0    999.0
 126    4:20   59.3    32    5.3   129      7.7   872.1    0.00       0    999.0
 126    4:30   59.3    32    5.6   138      8.0   872.0    0.00       0    999.0
 126    4:40   59.9    32    6.1   135      7.9   872.0    0.00       0    999.0
 126    4:50   59.0    34    4.7   120      6.1   872.0    0.00       1    999.0
 126    5:00   59.0    34    6.3   126     11.8   872.1    0.00       6    999.0
 126    5:10   60.8    32    8.2   140     11.2   872.2    0.00      16    999.0
 126    5:20   57.6    36    3.4   231      5.3   872.4    0.00      32    999.0
 126    5:30   59.6    34    6.9   169     11.0   872.5    0.00      45    999.0
 126    5:40   58.5    35    3.5   199      7.5   872.5    0.00      65    999.0
 126    5:50   57.8    37    5.6   216      8.3   872.8    0.00      96    999.0
 126    6:00   58.6    36    3.8   185      6.6   872.8    0.00     117    999.0
 126    6:10   60.1    35    5.3   138      7.8   872.8    0.00     137    999.0
 126    6:20   62.0    32    7.4   128     10.0   872.9    0.00     215    999.0
 126    6:30   63.2    31    8.0   132     11.8   872.9    0.00     247    999.0
 126    6:40   63.5    31    9.3   133     12.6   872.8    0.00     253    999.0
 126    6:50   63.4    31   10.9   136     15.3   872.7    0.00     230    999.0
 126    7:00   63.6    31   11.4   131     13.9   872.6    0.00     296    999.0
 126    7:10   63.8    31   10.4   132     13.4   872.5    0.00     250    999.0
 126    7:20   64.2    30   10.1   150     12.7   872.6    0.00     262    999.0
 126    7:30   64.5    30   11.0   159     14.0   872.6    0.00     355    999.0
 126    7:40   65.3    30   10.4   155     14.8   872.6    0.00     442    999.0
 126    7:50   65.5    29    9.1   148     12.2   872.6    0.00     324    999.0
 126    8:00   66.2    28    8.3   149     13.4   872.5    0.00     570    999.0
 126    8:10   67.0    28    8.4   133     12.9   872.5    0.00     509    999.0
 126    8:20   67.4    28    7.7   131     13.7   872.4    0.00     428    999.0
 126    8:30   67.4    28   10.5   152     15.1   872.4    0.00     365    999.0
 126    8:40   68.0    26   11.7   156     18.0   872.3    0.00     384    999.0
 126    8:50   68.5    23   13.3   160     21.5   872.4    0.00     292    999.0
 126    9:00   68.4    22   14.7   159     18.9   872.4    0.00     297    999.0
 126    9:10   68.6    22   16.1   153     23.2   872.4    0.00     303    999.0
 126    9:20   68.8    22   15.3   154     21.3   872.4    0.00     375    999.0
 126    9:30   69.1    22   15.1   159     21.5   872.4    0.00     403    999.0
 126    9:40   69.3    22   15.6   162     21.4   872.4    0.00     418    999.0
 126    9:50   70.0    22   16.7   158     23.2   872.3    0.00     443    999.0
 126   10:00   69.8    22   17.4   149     23.8   872.2    0.00     345    999.0
 126   10:10   69.6    22   15.4   164     20.3   872.2    0.00     351    999.0
 126   10:20   69.7    22   14.1   155     20.9   872.2    0.00     390    999.0
 126   10:30   69.8    23   17.6   156     26.2   872.3    0.00     451    999.0
 126   10:40   70.0    24   16.5   133     23.1   872.2    0.00     384    999.0
 126   10:50   69.7    24   18.0   140     25.1   872.1    0.00     361    999.0
 126   11:00   70.1    24   14.4   140     21.6   872.0    0.00     392    999.0
 126   11:10   69.9    24   17.0   146     24.5   872.0    0.00     452    999.0
 126   11:20   70.1    24   21.2   156     29.1   871.9    0.00     473    999.0
 126   11:30   70.2    24   20.0   152     27.5   871.8    0.00     513    999.0
 126   11:40   71.1    23   18.4   153     29.5   871.6    0.00     552    999.0
 126   11:50   71.4    22   23.0   146     31.9   871.5    0.00     560    999.0
 126   12:00   71.6    22   22.5   162     31.1   871.5    0.00     771    999.0
 126   12:10   72.1    22   23.0   154     30.0   871.4    0.00     766    999.0
 126   12:20   72.6    21   20.4   153     31.4   871.3    0.00     999    999.0
 126   12:30   72.9    20   23.5   147     32.5   871.1    0.00     802    999.0
 126   12:40   74.4    20   20.4   155     28.4   871.0    0.00     936    999.0
 126   12:50   74.0    20   22.8   146     30.5   870.8    0.00    1047    999.0
 126   13:00   74.1    20   20.9   145     35.7   870.7    0.00     843    999.0
 126   13:10   74.1    19   22.1   144     33.8   870.5    0.00     817    999.0
 126   13:20   74.6    18   22.9   147     30.8   870.5    0.00    1011    999.0
 126   13:30   74.2    18   22.9   140     31.7   870.4    0.00     846    999.0
 126   13:40   74.6    18   24.8   138     33.7   870.2    0.00     907    999.0
 126   13:50   74.2    17   24.6   140     37.8   870.1    0.00     887    999.0
 126   14:00   74.3    16   21.9   151     31.3   870.1    0.00     808    999.0
 126   14:10   74.4    16   20.7   158     30.3   870.1    0.00     865    999.0
 126   14:20   74.5    16   22.5   144     31.7   869.8    0.00     854    999.0
 126   14:30   74.0    16   23.8   138     34.7   869.7    0.00     821    999.0
 126   14:40   74.3    16   22.5   149     33.2   869.6    0.00     804    999.0
 126   14:50   74.4    15   23.1   160     30.5   869.6    0.00     749    999.0
 126   15:00   74.2    14   23.0   149     32.2   869.4    0.00     648    999.0
 126   15:10   74.0    16   24.1   151     36.8   869.4    0.00     545    999.0
 126   15:20   72.1    16   22.6   142     33.0   869.3    0.00     303    999.0
 126   15:30   72.6    18   21.5   158     30.5   869.3    0.00     441    999.0
 126   15:40   72.8    17   22.1   147     28.6   869.2    0.00     475    999.0

Return to Sarcobatus Flat, Nevada graphs page.


Western Regional Climate Center,wrcc@dri.edu